Time;durP1;ratioP1;P1;durP2;ratioP2;P2;SDS_P1;SDS_P2;PMS_P1;PMS_P2;Temp;Humidity;BMP_temperature;BMP_pressure;BME280_temperature;BME280_humidity;BME280_pressure;Samples;Min_cycle;Max_cycle;Signal;HPM_P1;HPM_P2
2022/08/01 00:00:38;;;;;;;2.05;1.20;;;21.90;99.90;;;;;;5058876;28;20194;-82
2022/08/01 00:03:04;;;;;;;1.15;1.13;;;22.10;99.90;;;;;;5077035;28;20152;-84
2022/08/01 00:05:29;;;;;;;1.83;1.40;;;22.00;99.90;;;;;;5075434;28;20213;-85
2022/08/01 00:07:55;;;;;;;6.93;1.60;;;22.10;99.90;;;;;;5075330;28;20163;-82
2022/08/01 00:10:21;;;;;;;3.72;1.70;;;22.10;99.90;;;;;;5061353;28;20195;-83
2022/08/01 00:12:47;;;;;;;3.85;1.73;;;22.00;99.90;;;;;;5037143;28;20163;-84
2022/08/01 00:15:15;;;;;;;2.95;2.15;;;22.00;99.90;;;;;;5052718;28;20674;-86
2022/08/01 00:17:41;;;;;;;6.70;2.40;;;21.80;99.90;;;;;;5053742;28;20627;-84
2022/08/01 00:20:09;;;;;;;7.57;2.08;;;21.80;99.90;;;;;;5053504;28;20203;-84
2022/08/01 00:22:35;;;;;;;5.53;2.22;;;21.70;99.90;;;;;;5053822;28;20178;-86
2022/08/01 00:25:01;;;;;;;4.45;2.22;;;21.60;99.90;;;;;;5035924;28;20171;-85
2022/08/01 00:27:27;;;;;;;4.15;2.70;;;21.60;99.90;;;;;;5036085;28;20171;-84
2022/08/01 00:29:53;;;;;;;5.57;2.67;;;21.50;99.90;;;;;;5036322;28;20194;-84
2022/08/01 00:32:19;;;;;;;8.57;2.38;;;21.40;99.90;;;;;;5053785;28;20171;-85
2022/08/01 00:34:44;;;;;;;5.97;2.00;;;21.50;99.90;;;;;;5036255;28;20297;-82
2022/08/01 00:37:10;;;;;;;4.65;2.50;;;21.60;99.90;;;;;;5053953;28;20232;-85
2022/08/01 00:39:36;;;;;;;3.42;2.08;;;21.70;99.90;;;;;;5054181;28;20183;-86
2022/08/01 00:42:10;;;;;;;4.78;2.28;;;21.70;99.90;;;;;;5054022;28;20228;-86
2022/08/01 00:44:36;;;;;;;7.75;2.33;;;21.80;99.90;;;;;;5053443;28;20497;-86
2022/08/01 00:47:02;;;;;;;8.20;3.03;;;21.70;99.90;;;;;;5053621;28;20160;-86
2022/08/01 00:49:28;;;;;;;6.55;2.17;;;21.50;99.90;;;;;;5035762;28;20203;-85
2022/08/01 00:51:55;;;;;;;6.95;2.13;;;21.60;99.90;;;;;;5053291;28;20170;-84
2022/08/01 00:54:20;;;;;;;7.65;2.03;;;21.70;99.90;;;;;;5035290;28;20250;-85
2022/08/01 00:56:47;;;;;;;6.78;2.15;;;21.80;99.90;;;;;;5053254;28;20171;-85
2022/08/01 00:59:16;;;;;;;3.88;2.10;;;21.80;99.90;;;;;;5053315;28;20186;-82
2022/08/01 01:01:42;;;;;;;2.67;1.98;;;21.80;99.90;;;;;;5053170;28;20212;-85
2022/08/01 01:04:08;;;;;;;2.70;2.00;;;21.60;99.90;;;;;;5053205;28;20265;-84
2022/08/01 01:06:51;;;;;;;2.88;2.15;;;21.50;99.90;;;;;;5053282;28;20502;-85
2022/08/01 01:09:23;;;;;;;3.25;2.70;;;21.40;99.90;;;;;;5053111;28;20202;-85
2022/08/01 01:12:18;;;;;;;7.60;3.40;;;21.50;99.90;;;;;;5053380;28;20166;-85
2022/08/01 01:15:06;;;;;;;5.53;3.30;;;21.50;99.90;;;;;;5053205;28;20206;-85
2022/08/01 01:17:58;;;;;;;6.15;4.30;;;21.40;99.90;;;;;;5053929;28;20156;-83
2022/08/01 01:20:45;;;;;;;5.28;3.33;;;21.30;99.90;;;;;;5035324;28;20721;-85
2022/08/01 01:23:32;;;;;;;7.97;4.05;;;21.30;99.90;;;;;;5035521;28;20178;-85
2022/08/01 01:26:35;;;;;;;8.43;4.05;;;21.30;99.90;;;;;;5037809;28;20186;-85
2022/08/01 01:29:17;;;;;;;3.90;3.40;;;21.40;99.90;;;;;;5039586;28;20214;-84
2022/08/01 01:32:05;;;;;;;3.72;3.25;;;21.40;99.90;;;;;;5057408;28;20518;-85
2022/08/01 01:34:39;;;;;;;4.90;4.28;;;21.40;99.90;;;;;;5039257;28;20211;-85
2022/08/01 01:37:12;;;;;;;10.73;5.28;;;21.40;99.90;;;;;;5039665;28;20170;-83
2022/08/01 01:39:40;;;;;;;13.25;5.70;;;21.50;99.90;;;;;;5057216;28;20333;-85
2022/08/01 01:42:07;;;;;;;16.83;6.03;;;21.50;99.90;;;;;;5057001;28;20159;-85
2022/08/01 01:44:35;;;;;;;10.65;6.15;;;21.50;99.90;;;;;;5057097;28;20502;-85
2022/08/01 01:47:02;;;;;;;13.57;6.60;;;21.40;99.90;;;;;;5057196;28;20262;-83
2022/08/01 01:49:29;;;;;;;15.07;7.28;;;21.20;99.90;;;;;;5056768;28;20191;-85
2022/08/01 01:51:58;;;;;;;10.23;6.18;;;21.10;99.90;;;;;;5056770;28;20163;-82
2022/08/01 01:54:28;;;;;;;11.45;6.78;;;21.10;99.90;;;;;;5056796;28;20222;-83
2022/08/01 01:56:58;;;;;;;10.88;7.30;;;21.20;99.90;;;;;;5038827;28;20178;-85
2022/08/01 01:59:27;;;;;;;14.15;7.15;;;21.20;99.90;;;;;;5056616;28;20203;-85
2022/08/01 02:01:57;;;;;;;15.85;6.97;;;21.30;99.90;;;;;;5056746;28;20163;-85
2022/08/01 02:04:24;;;;;;;13.32;7.50;;;21.40;99.90;;;;;;5056558;28;20175;-84
2022/08/01 02:06:50;;;;;;;11.48;6.68;;;21.50;99.90;;;;;;5038596;28;20628;-84
2022/08/01 02:09:19;;;;;;;15.70;7.43;;;21.50;99.90;;;;;;5056394;28;20560;-85
2022/08/01 02:11:47;;;;;;;12.88;6.57;;;21.50;99.90;;;;;;5038893;28;20175;-83
2022/08/01 02:14:13;;;;;;;16.85;6.90;;;21.50;99.90;;;;;;5056524;28;20191;-86
2022/08/01 02:16:42;;;;;;;12.30;6.60;;;21.50;99.90;;;;;;5038724;28;20160;-84
2022/08/01 02:19:10;;;;;;;14.52;6.72;;;21.50;99.90;;;;;;5056374;28;20612;-84
2022/08/01 02:21:52;;;;;;;11.25;6.65;;;21.50;99.90;;;;;;5056421;28;20167;-86
2022/08/01 02:24:46;;;;;;;12.50;5.63;;;21.60;99.90;;;;;;5056362;28;20531;-84
2022/08/01 02:27:17;;;;;;;12.52;6.35;;;21.50;99.90;;;;;;5038388;28;20163;-85
2022/08/01 02:30:00;;;;;;;12.02;6.18;;;21.40;99.90;;;;;;5038774;28;20682;-83
2022/08/01 02:32:39;;;;;;;9.35;5.88;;;21.50;99.90;;;;;;5056513;28;20163;-84
2022/08/01 02:35:09;;;;;;;19.77;6.00;;;21.50;99.90;;;;;;5055968;28;20216;-83
2022/08/01 02:37:38;;;;;;;13.90;6.25;;;21.40;99.90;;;;;;5054945;28;20164;-84
2022/08/01 02:40:05;;;;;;;14.77;6.70;;;21.30;99.90;;;;;;5055760;28;20667;-85
2022/08/01 02:42:32;;;;;;;12.85;6.82;;;21.30;99.90;;;;;;5037956;28;20506;-84
2022/08/01 02:44:58;;;;;;;15.02;7.25;;;21.30;99.90;;;;;;5055819;28;20700;-84
2022/08/01 02:47:27;;;;;;;15.18;6.45;;;21.30;99.90;;;;;;5037727;28;20171;-85
2022/08/01 02:49:55;;;;;;;11.05;6.68;;;21.40;99.90;;;;;;5055289;28;20454;-83
2022/08/01 02:52:24;;;;;;;17.75;7.15;;;21.40;99.90;;;;;;5037561;28;20174;-85
2022/08/01 02:54:53;;;;;;;11.40;7.43;;;21.40;99.90;;;;;;5055356;28;20210;-84
2022/08/01 02:57:20;;;;;;;12.30;7.40;;;21.40;99.90;;;;;;5055239;28;20163;-84
2022/08/01 02:59:47;;;;;;;13.07;7.30;;;21.40;99.90;;;;;;5037777;28;20191;-85
2022/08/01 03:02:15;;;;;;;13.80;7.25;;;21.40;99.90;;;;;;5055917;28;20160;-84
2022/08/01 03:04:42;;;;;;;28.73;7.85;;;21.30;99.90;;;;;;5055527;28;20191;-84
2022/08/01 03:07:10;;;;;;;13.52;7.53;;;21.20;99.90;;;;;;5055202;28;20159;-84
2022/08/01 03:09:39;;;;;;;17.52;6.90;;;21.10;99.90;;;;;;5037456;28;20191;-83
2022/08/01 03:12:09;;;;;;;15.57;7.07;;;21.10;99.90;;;;;;5055254;28;20217;-85
2022/08/01 03:14:37;;;;;;;9.07;7.55;;;21.20;99.90;;;;;;5037125;28;20215;-84
2022/08/01 03:17:05;;;;;;;21.27;9.32;;;21.30;99.90;;;;;;5055020;28;20163;-85
2022/08/01 03:19:33;;;;;;;25.13;9.05;;;21.20;99.90;;;;;;5036818;28;20340;-83
2022/08/01 03:22:03;;;;;;;24.30;8.23;;;21.10;99.90;;;;;;5037538;28;20174;-84
2022/08/01 03:24:30;;;;;;;17.33;7.78;;;21.20;99.90;;;;;;5055429;28;20628;-85
2022/08/01 03:26:58;;;;;;;17.52;9.10;;;21.10;99.90;;;;;;5055052;28;20192;-84
2022/08/01 03:29:27;;;;;;;23.52;9.50;;;21.10;99.90;;;;;;5037152;28;20211;-86
2022/08/01 03:31:52;;;;;;;27.20;8.63;;;21.00;99.90;;;;;;5037497;28;20228;-85
2022/08/01 03:34:21;;;;;;;18.13;8.25;;;21.00;99.90;;;;;;5055134;28;20199;-83
2022/08/01 03:37:03;;;;;;;15.15;9.02;;;21.00;99.90;;;;;;5054532;28;20174;-84
2022/08/01 03:39:34;;;;;;;13.23;7.85;;;20.90;99.90;;;;;;5054902;28;20198;-84
2022/08/01 03:42:07;;;;;;;14.15;8.88;;;20.80;99.90;;;;;;5054259;28;20536;-84
2022/08/01 03:44:35;;;;;;;13.80;9.32;;;20.90;99.90;;;;;;5054570;28;20171;-84
2022/08/01 03:47:05;;;;;;;23.90;8.93;;;21.00;99.90;;;;;;5055108;28;20246;-84
2022/08/01 03:49:34;;;;;;;16.02;9.20;;;20.80;99.90;;;;;;5054659;28;20221;-86
2022/08/01 03:52:04;;;;;;;17.60;9.68;;;20.80;99.90;;;;;;5036533;28;20175;-84
2022/08/01 03:54:33;;;;;;;19.58;9.35;;;20.70;99.90;;;;;;5036528;28;20666;-86
2022/08/01 03:57:00;;;;;;;23.67;9.73;;;20.80;99.90;;;;;;5054228;28;20620;-85
2022/08/01 03:59:26;;;;;;;18.98;9.85;;;20.70;99.90;;;;;;5036373;28;20671;-84
2022/08/01 04:01:53;;;;;;;19.33;9.23;;;20.80;99.90;;;;;;5054135;28;20253;-85
2022/08/01 04:04:19;;;;;;;17.67;9.43;;;21.00;99.90;;;;;;5036333;28;20546;-83
2022/08/01 04:06:45;;;;;;;25.90;10.55;;;21.00;99.90;;;;;;5036188;28;20169;-85
2022/08/01 04:09:11;;;;;;;16.50;9.18;;;21.00;99.90;;;;;;5035815;28;20261;-85
2022/08/01 04:11:38;;;;;;;13.75;9.38;;;20.90;99.90;;;;;;5053560;28;20673;-86
2022/08/01 04:14:04;;;;;;;16.88;9.32;;;20.90;99.90;;;;;;5035957;28;20215;-86
2022/08/01 04:16:29;;;;;;;30.10;13.25;;;21.10;99.90;;;;;;5036532;28;20171;-83
2022/08/01 04:18:55;;;;;;;16.88;11.05;;;21.10;99.90;;;;;;5036220;28;20222;-85
2022/08/01 04:21:27;;;;;;;13.50;9.32;;;21.00;99.90;;;;;;5036528;28;20159;-85
2022/08/01 04:23:56;;;;;;;14.70;9.25;;;21.20;99.90;;;;;;5036517;28;20627;-85
2022/08/01 04:26:23;;;;;;;15.43;9.38;;;21.10;99.90;;;;;;5036341;28;20666;-85
2022/08/01 04:28:51;;;;;;;13.68;8.57;;;21.00;99.90;;;;;;5036408;28;20191;-85
2022/08/01 04:31:18;;;;;;;15.85;8.65;;;21.10;99.90;;;;;;5035706;28;20193;-86
2022/08/01 04:33:49;;;;;;;20.52;9.30;;;21.20;99.90;;;;;;5035768;28;20230;-84
2022/08/01 04:36:17;;;;;;;16.27;9.35;;;21.40;99.90;;;;;;5053446;28;20171;-83
2022/08/01 04:38:47;;;;;;;16.25;8.20;;;21.40;99.90;;;;;;5053501;28;20285;-85
2022/08/01 04:41:14;;;;;;;13.43;9.90;;;21.30;99.90;;;;;;5036101;28;20163;-85
2022/08/01 04:43:41;;;;;;;11.63;8.73;;;21.30;99.90;;;;;;5053756;28;20216;-82
2022/08/01 04:46:07;;;;;;;11.93;9.77;;;21.30;99.90;;;;;;5035946;28;20171;-84
2022/08/01 04:48:36;;;;;;;16.33;9.40;;;21.50;99.90;;;;;;5053165;28;20666;-82
2022/08/01 04:51:03;;;;;;;18.13;10.68;;;21.70;99.90;;;;;;5035638;28;20167;-84
2022/08/01 04:53:28;;;;;;;15.77;10.20;;;21.60;99.90;;;;;;5035842;28;20190;-85
2022/08/01 04:55:54;;;;;;;10.52;9.35;;;21.50;99.90;;;;;;5053158;28;20167;-83
2022/08/01 04:58:19;;;;;;;17.50;10.00;;;21.60;99.90;;;;;;5035019;28;20574;-84
2022/08/01 05:00:48;;;;;;;12.93;9.30;;;21.50;99.90;;;;;;5035228;28;20175;-85
2022/08/01 05:03:14;;;;;;;19.88;9.30;;;21.40;99.90;;;;;;5053709;28;20229;-86
2022/08/01 05:05:40;;;;;;;11.68;9.35;;;21.40;99.90;;;;;;5053100;28;20639;-85
2022/08/01 05:08:05;;;;;;;14.32;8.23;;;21.30;99.90;;;;;;5053335;28;20497;-84
2022/08/01 05:10:31;;;;;;;12.20;8.65;;;21.50;99.90;;;;;;5053368;28;20185;-83
2022/08/01 05:12:57;;;;;;;11.20;9.05;;;21.60;99.90;;;;;;5053222;28;20175;-84
2022/08/01 05:15:23;;;;;;;13.00;7.88;;;21.70;99.90;;;;;;5053171;28;20234;-88
2022/08/01 05:17:48;;;;;;;9.95;8.88;;;21.70;99.90;;;;;;5053183;28;20163;-85
2022/08/01 05:20:14;;;;;;;12.75;7.65;;;21.70;99.90;;;;;;5034998;28;20190;-82
2022/08/01 05:22:39;;;;;;;9.70;7.43;;;21.60;99.90;;;;;;5052981;28;20174;-85
2022/08/01 05:25:06;;;;;;;8.85;7.65;;;21.50;99.90;;;;;;5035335;28;20201;-85
2022/08/01 05:27:32;;;;;;;10.18;7.30;;;21.60;99.90;;;;;;5052880;28;20178;-85
2022/08/01 05:29:57;;;;;;;8.77;7.75;;;21.50;99.90;;;;;;5035017;28;20195;-84
2022/08/01 05:32:23;;;;;;;7.20;6.50;;;21.60;99.90;;;;;;5035200;28;20178;-86
2022/08/01 05:34:49;;;;;;;9.32;7.80;;;21.50;99.90;;;;;;5035129;28;20209;-84
2022/08/01 05:37:15;;;;;;;8.95;6.57;;;21.60;99.90;;;;;;5034760;28;20611;-84
2022/08/01 05:39:40;;;;;;;8.95;6.13;;;21.40;99.90;;;;;;5034886;28;20218;-83
2022/08/01 05:42:06;;;;;;;9.43;6.85;;;21.30;99.90;;;;;;5035158;28;20167;-84
2022/08/01 05:44:32;;;;;;;8.80;6.75;;;21.30;99.90;;;;;;5052452;28;20189;-86
2022/08/01 05:46:57;;;;;;;9.52;5.95;;;21.40;99.90;;;;;;5034802;28;20249;-87
2022/08/01 05:49:23;;;;;;;8.23;5.47;;;21.60;99.90;;;;;;5034770;28;20187;-86
2022/08/01 05:51:49;;;;;;;6.72;4.93;;;21.50;99.90;;;;;;5052965;28;20514;-84
2022/08/01 05:54:14;;;;;;;9.32;5.60;;;21.60;99.90;;;;;;5052273;28;20222;-85
2022/08/01 05:56:40;;;;;;;15.48;6.55;;;21.70;99.90;;;;;;5053236;28;20519;-85
2022/08/01 05:59:06;;;;;;;6.72;5.82;;;21.80;99.90;;;;;;5053003;28;20187;-85
2022/08/01 06:01:32;;;;;;;8.45;5.68;;;21.80;99.90;;;;;;5035062;28;20171;-86
2022/08/01 06:03:57;;;;;;;9.50;5.65;;;21.80;99.90;;;;;;5035479;28;20179;-85
2022/08/01 06:06:23;;;;;;;10.02;5.40;;;21.50;99.90;;;;;;5035657;28;20190;-86
2022/08/01 06:08:49;;;;;;;6.57;5.00;;;21.60;99.90;;;;;;5034882;28;20195;-87
2022/08/01 06:11:14;;;;;;;7.70;5.38;;;21.70;99.90;;;;;;5035378;28;20257;-87
2022/08/01 06:13:40;;;;;;;11.07;5.25;;;22.00;99.90;;;;;;5038225;28;20286;-89
2022/08/01 06:16:06;;;;;;;5.00;4.55;;;22.20;99.90;;;;;;5038147;28;20201;-85
2022/08/01 06:18:31;;;;;;;6.35;4.97;;;22.30;99.90;;;;;;5055739;28;20511;-85
2022/08/01 06:20:57;;;;;;;7.40;4.57;;;22.30;99.90;;;;;;5038030;28;20175;-85
2022/08/01 06:23:22;;;;;;;4.95;4.50;;;22.30;99.90;;;;;;5055515;28;20167;-86
2022/08/01 06:25:52;;;;;;;5.85;3.20;;;22.40;99.90;;;;;;5040249;28;20578;-90
2022/08/01 06:28:17;;;;;;;10.70;3.35;;;22.30;99.90;;;;;;5038326;28;20631;-92
2022/08/01 06:30:43;;;;;;;5.55;2.85;;;22.00;99.90;;;;;;5039630;28;20170;-91
2022/08/01 06:33:09;;;;;;;6.47;3.80;;;22.30;99.90;;;;;;5056851;28;20627;-90
2022/08/01 06:35:34;;;;;;;7.57;2.63;;;22.60;99.90;;;;;;5038350;28;20202;-90
2022/08/01 06:38:00;;;;;;;6.85;2.78;;;23.00;99.90;;;;;;5038664;28;20171;-91
2022/08/01 06:40:26;;;;;;;15.88;3.53;;;23.50;99.90;;;;;;5038475;28;20289;-89
2022/08/01 06:42:51;;;;;;;3.90;2.65;;;23.70;99.90;;;;;;5056287;28;20176;-89
2022/08/01 06:45:17;;;;;;;5.63;2.70;;;24.00;99.90;;;;;;5038911;28;20159;-91
2022/08/01 06:47:44;;;;;;;10.05;2.78;;;24.20;99.90;;;;;;5055856;28;20236;-87
2022/08/01 06:50:11;;;;;;;9.65;2.65;;;24.40;99.90;;;;;;5037832;28;20547;-90
2022/08/01 06:52:37;;;;;;;4.32;2.47;;;24.40;99.90;;;;;;5056148;28;20202;-86
2022/08/01 06:55:03;;;;;;;6.15;2.40;;;24.50;99.90;;;;;;5038167;28;20203;-87
2022/08/01 06:57:29;;;;;;;3.88;2.50;;;24.50;99.90;;;;;;5037983;28;20171;-88
2022/08/01 06:59:55;;;;;;;7.28;2.80;;;24.50;99.90;;;;;;5038150;28;20286;-86
2022/08/01 07:02:21;;;;;;;11.88;2.30;;;24.80;99.90;;;;;;5055597;28;20306;-87
2022/08/01 07:04:47;;;;;;;4.18;2.40;;;24.70;99.90;;;;;;5037471;28;20190;-87
2022/08/01 07:07:12;;;;;;;5.68;2.28;;;24.60;99.90;;;;;;5037533;28;20578;-88
2022/08/01 07:09:41;;;;;;;3.53;2.03;;;24.10;99.90;;;;;;5037602;28;20199;-86
2022/08/01 07:12:07;;;;;;;2.95;2.17;;;23.90;99.90;;;;;;5055447;28;20166;-87
2022/08/01 07:14:33;;;;;;;3.10;1.98;;;24.10;99.90;;;;;;5037240;28;20210;-86
2022/08/01 07:16:58;;;;;;;10.10;1.98;;;24.20;99.90;;;;;;5055854;28;20163;-84
2022/08/01 07:19:26;;;;;;;1.10;0.98;;;23.90;99.90;;;;;;5038540;28;20677;-87
2022/08/01 07:21:52;;;;;;;10.73;1.60;;;23.90;99.90;;;;;;5056497;28;20562;-88
2022/08/01 07:24:17;;;;;;;2.28;0.93;;;24.30;99.90;;;;;;5038061;28;20171;-86
2022/08/01 07:26:45;;;;;;;1.92;1.15;;;24.30;99.90;;;;;;5037971;28;20163;-88
2022/08/01 07:29:11;;;;;;;1.23;1.02;;;24.80;99.90;;;;;;5055422;28;20260;-87
2022/08/01 07:31:36;;;;;;;0.98;0.90;;;25.20;99.90;;;;;;5036899;28;20624;-83
2022/08/01 07:34:02;;;;;;;1.08;0.80;;;24.90;99.90;;;;;;5055531;28;20287;-87
2022/08/01 07:36:27;;;;;;;1.73;1.00;;;24.00;99.90;;;;;;5037868;28;20171;-88
2022/08/01 07:38:53;;;;;;;6.00;2.42;;;24.30;99.90;;;;;;5037469;28;20206;-86
2022/08/01 07:41:19;;;;;;;4.10;3.80;;;24.30;99.90;;;;;;5036957;28;20514;-85
2022/08/01 07:43:44;;;;;;;1.58;1.27;;;24.30;99.90;;;;;;5054655;28;20163;-85
2022/08/01 07:46:10;;;;;;;4.88;2.67;;;24.40;99.90;;;;;;5036614;28;20171;-87
2022/08/01 07:48:35;;;;;;;6.65;1.10;;;24.10;99.90;;;;;;5036159;28;20335;-85
2022/08/01 07:51:01;;;;;;;4.20;1.35;;;23.70;99.90;;;;;;5036349;28;20178;-91
2022/08/01 07:53:26;;;;;;;1.92;0.95;;;23.60;99.90;;;;;;5032399;28;20250;-92
2022/08/01 07:55:52;;;;;;;3.80;1.20;;;23.50;99.90;;;;;;5036748;28;20167;-94
2022/08/01 07:58:18;;;;;;;2.13;1.10;;;23.30;99.90;;;;;;5054575;28;20631;-92
2022/08/01 08:00:44;;;;;;;1.30;1.20;;;23.30;99.90;;;;;;5054703;28;20168;-90
2022/08/01 08:03:09;;;;;;;1.77;1.40;;;23.30;99.90;;;;;;5053203;28;20202;-92
2022/08/01 08:05:35;;;;;;;6.75;2.03;;;23.30;99.90;;;;;;5035034;28;20260;-93
2022/08/01 08:08:11;;;;;;;5.18;1.30;;;23.50;99.90;;;;;;5053697;28;20620;-93
2022/08/01 08:10:36;;;;;;;1.65;0.95;;;23.90;99.90;;;;;;5032384;28;20221;-89
2022/08/01 08:13:02;;;;;;;1.45;0.93;;;24.10;99.90;;;;;;5033104;28;20199;-91
2022/08/01 08:15:29;;;;;;;1.02;0.93;;;24.10;99.90;;;;;;5034775;28;20253;-92
2022/08/01 08:17:54;;;;;;;1.60;0.90;;;23.80;99.90;;;;;;5035443;28;20242;-93
2022/08/01 08:20:24;;;;;;;0.70;0.70;;;23.80;99.90;;;;;;5035511;28;20291;-90
2022/08/01 08:22:51;;;;;;;0.75;0.43;;;23.50;99.90;;;;;;5035901;28;20401;-92
2022/08/01 08:25:18;;;;;;;3.67;0.70;;;23.50;99.90;;;;;;5036407;28;20181;-90
2022/08/01 08:27:44;;;;;;;1.20;0.90;;;23.90;99.90;;;;;;5036735;28;20171;-89
2022/08/01 08:30:11;;;;;;;2.78;0.90;;;24.30;99.90;;;;;;5036717;28;20183;-91
2022/08/01 08:32:37;;;;;;;3.63;0.82;;;24.50;99.90;;;;;;5036994;28;20642;-92
2022/08/01 08:35:04;;;;;;;0.75;0.75;;;24.40;99.90;;;;;;5037215;28;20206;-96
2022/08/01 08:37:30;;;;;;;2.47;0.80;;;24.40;99.90;;;;;;5055817;28;20166;-94
2022/08/01 08:39:57;;;;;;;1.05;0.80;;;24.60;99.90;;;;;;5021770;28;20190;-89
2022/08/01 08:42:50;;;;;;;1.55;1.30;;;24.60;99.90;;;;;;5048068;28;20168;-90
2022/08/01 08:45:15;;;;;;;4.05;0.95;;;24.80;99.90;;;;;;5048236;28;20191;-92
2022/08/01 08:47:43;;;;;;;5.03;1.52;;;25.00;99.90;;;;;;5055240;28;20171;-88
2022/08/01 08:50:09;;;;;;;1.92;1.42;;;25.70;99.90;;;;;;5035877;28;20244;-89
2022/08/01 08:52:37;;;;;;;1.65;1.55;;;26.10;99.90;;;;;;5035124;28;20171;-86
2022/08/01 08:55:04;;;;;;;1.35;1.25;;;26.10;99.90;;;;;;5035038;28;20218;-85
2022/08/01 08:57:30;;;;;;;1.88;1.42;;;25.80;99.90;;;;;;5035084;28;20234;-84
2022/08/01 08:59:56;;;;;;;1.65;1.30;;;25.70;99.90;;;;;;5052866;28;20250;-82
2022/08/01 09:02:22;;;;;;;0.90;0.80;;;25.50;99.90;;;;;;5051998;28;20163;-86
2022/08/01 09:04:49;;;;;;;2.10;0.75;;;25.40;99.90;;;;;;5034911;28;20187;-87
2022/08/01 09:07:15;;;;;;;1.45;1.17;;;25.20;99.90;;;;;;5035525;28;20183;-87
2022/08/01 09:09:41;;;;;;;5.95;1.00;;;25.10;99.90;;;;;;5035748;28;20198;-88
2022/08/01 09:12:06;;;;;;;1.90;0.65;;;24.70;99.90;;;;;;5035052;28;20178;-87
2022/08/01 09:14:34;;;;;;;1.80;0.52;;;24.30;99.90;;;;;;5035015;28;20548;-87
2022/08/01 09:17:08;;;;;;;0.50;0.50;;;24.30;99.90;;;;;;5035062;28;20179;-86
2022/08/01 09:19:48;;;;;;;3.70;0.90;;;24.40;99.90;;;;;;5034800;28;20199;-87
2022/08/01 09:22:21;;;;;;;1.20;0.75;;;24.60;99.90;;;;;;5035145;28;20534;-86
2022/08/01 09:25:04;;;;;;;0.90;0.77;;;25.00;99.90;;;;;;5027358;28;20310;-88
2022/08/01 09:27:31;;;;;;;0.80;0.60;;;25.00;99.90;;;;;;5015905;28;20171;-88
2022/08/01 09:30:13;;;;;;;1.67;0.73;;;25.20;99.90;;;;;;5015371;28;20961;-89
2022/08/01 09:33:03;;;;;;;7.03;1.55;;;25.80;99.90;;;;;;5014644;28;20582;-85
2022/08/01 09:35:37;;;;;;;2.08;0.75;;;26.40;99.90;;;;;;5021020;28;20207;-85
2022/08/01 09:38:11;;;;;;;0.80;0.43;;;26.30;99.90;;;;;;5034581;28;20246;-88
2022/08/01 09:40:47;;;;;;;1.20;0.60;;;26.80;99.90;;;;;;5035574;28;20190;-86
2022/08/01 09:43:13;;;;;;;1.50;0.60;;;26.70;99.90;;;;;;5035803;28;20163;-89
2022/08/01 09:45:38;;;;;;;4.20;0.60;;;26.40;99.90;;;;;;5035573;28;20182;-87
2022/08/01 09:48:15;;;;;;;0.30;0.30;;;26.20;99.90;;;;;;5039369;28;20167;-89
2022/08/01 09:50:52;;;;;;;5.30;0.38;;;26.00;99.90;;;;;;5056630;28;20186;-85
2022/08/01 09:53:19;;;;;;;1.52;0.50;;;26.00;99.90;;;;;;5039496;28;20186;-88
2022/08/01 09:55:45;;;;;;;3.58;0.80;;;26.10;99.90;;;;;;5056433;28;20213;-88
2022/08/01 09:58:11;;;;;;;1.05;0.70;;;26.20;99.90;;;;;;5058116;28;20163;-88
2022/08/01 10:00:38;;;;;;;1.92;0.50;;;26.20;99.90;;;;;;5039460;28;20197;-89
2022/08/01 10:03:21;;;;;;;0.50;0.40;;;26.40;99.90;;;;;;5056556;28;20242;-89
2022/08/01 10:05:47;;;;;;;0.20;0.20;;;26.50;99.90;;;;;;5056676;28;20183;-88
2022/08/01 10:08:13;;;;;;;0.45;0.40;;;26.80;99.90;;;;;;5056939;28;20250;-87
2022/08/01 10:10:39;;;;;;;0.50;0.50;;;26.70;99.90;;;;;;5056409;28;20197;-87
2022/08/01 10:13:05;;;;;;;1.67;0.30;;;26.70;99.90;;;;;;5045487;28;20262;-90
2022/08/01 10:15:31;;;;;;;0.40;0.40;;;26.60;99.90;;;;;;5041138;28;20225;-85
2022/08/01 10:18:00;;;;;;;0.90;0.38;;;27.20;99.90;;;;;;5038055;28;20172;-86
2022/08/01 10:20:31;;;;;;;0.38;0.38;;;26.50;99.90;;;;;;5038243;28;20730;-85
2022/08/01 10:23:04;;;;;;;0.80;0.80;;;26.20;99.90;;;;;;5056357;28;20163;-84
2022/08/01 10:25:36;;;;;;;0.60;0.60;;;26.60;99.90;;;;;;5037949;28;20175;-84
2022/08/01 10:28:16;;;;;;;4.47;0.73;;;26.70;99.90;;;;;;5039319;28;20159;-85
2022/08/01 10:30:43;;;;;;;0.68;0.60;;;27.00;99.90;;;;;;5038521;28;20260;-87
2022/08/01 10:33:10;;;;;;;0.47;0.45;;;27.30;99.90;;;;;;5059865;28;20175;-84
2022/08/01 10:35:38;;;;;;;0.43;0.35;;;27.60;99.90;;;;;;5078025;28;20206;-84
2022/08/01 10:38:04;;;;;;;4.80;0.50;;;27.10;99.90;;;;;;5060471;28;20199;-84
2022/08/01 10:40:31;;;;;;;0.82;0.60;;;26.50;99.90;;;;;;5058827;28;20206;-83
2022/08/01 10:42:57;;;;;;;2.20;0.70;;;26.80;99.90;;;;;;5058948;28;20167;-85
2022/08/01 10:45:25;;;;;;;0.40;0.40;;;26.90;99.90;;;;;;5057665;28;20213;-85
2022/08/01 10:48:32;;;;;;;2.67;0.40;;;27.00;99.90;;;;;;5056829;28;20167;-85
2022/08/01 10:51:01;;;;;;;1.05;0.50;;;27.30;99.90;;;;;;5036735;28;20195;-85
2022/08/01 10:53:27;;;;;;;0.38;0.38;;;27.30;99.90;;;;;;5051743;28;20174;-84
2022/08/01 10:55:56;;;;;;;1.80;0.47;;;27.00;99.90;;;;;;5054708;28;20689;-84
2022/08/01 10:58:36;;;;;;;3.63;0.60;;;26.90;99.90;;;;;;5051338;28;20164;-83
2022/08/01 11:01:23;;;;;;;7.50;0.63;;;26.90;99.90;;;;;;5043274;28;20150;-84
2022/08/01 11:04:04;;;;;;;1.75;0.50;;;27.20;99.90;;;;;;5036106;28;20178;-83
2022/08/01 11:06:32;;;;;;;1.00;0.60;;;27.30;99.90;;;;;;5037981;28;20538;-83
2022/08/01 11:09:05;;;;;;;1.85;0.70;;;27.40;99.90;;;;;;5037236;28;20257;-85
2022/08/01 11:11:31;;;;;;;0.50;0.50;;;27.30;99.90;;;;;;5038867;28;20174;-84
2022/08/01 11:14:06;;;;;;;0.30;0.30;;;27.60;99.90;;;;;;5067644;28;20194;-84
2022/08/01 11:16:34;;;;;;;3.03;0.45;;;27.90;99.90;;;;;;5058175;28;20170;-84
2022/08/01 11:19:00;;;;;;;4.90;0.60;;;28.30;99.90;;;;;;5058859;28;20187;-84
2022/08/01 11:21:54;;;;;;;1.45;1.15;;;28.40;99.90;;;;;;5057615;28;20233;-83
2022/08/01 11:24:45;;;;;;;9.75;0.65;;;28.00;99.90;;;;;;5050185;28;20168;-84
2022/08/01 11:27:18;;;;;;;2.05;0.43;;;27.60;99.90;;;;;;5073323;28;20147;-85
2022/08/01 11:29:43;;;;;;;5.72;0.35;;;27.80;99.90;;;;;;5056949;28;20187;-86
2022/08/01 11:32:26;;;;;;;0.93;0.38;;;28.10;99.90;;;;;;5039051;28;20237;-85
2022/08/01 11:34:54;;;;;;;0.55;0.40;;;27.80;99.90;;;;;;5037730;28;20249;-83
2022/08/01 11:37:25;;;;;;;1.58;0.50;;;27.50;99.90;;;;;;5037911;28;20171;-83
2022/08/01 11:40:15;;;;;;;1.95;0.60;;;27.20;99.90;;;;;;5055515;28;20616;-83
2022/08/01 11:42:41;;;;;;;0.65;0.52;;;26.90;99.90;;;;;;5054822;28;20523;-84
2022/08/01 11:45:09;;;;;;;2.95;0.40;;;26.80;99.90;;;;;;5036701;28;20167;-84
2022/08/01 11:47:51;;;;;;;0.65;0.50;;;27.00;99.90;;;;;;5036813;28;20160;-83
2022/08/01 11:50:29;;;;;;;2.55;0.98;;;27.50;99.90;;;;;;5036489;28;20223;-84
2022/08/01 11:53:02;;;;;;;2.13;0.68;;;27.70;99.90;;;;;;5036531;28;20181;-84
2022/08/01 11:55:29;;;;;;;2.90;0.50;;;27.90;99.90;;;;;;5036760;28;20287;-84
2022/08/01 11:58:01;;;;;;;0.50;0.40;;;27.50;99.90;;;;;;5036509;28;20627;-84
2022/08/01 12:00:27;;;;;;;1.05;0.65;;;27.20;99.90;;;;;;5036362;28;20190;-83
2022/08/01 12:03:02;;;;;;;0.30;0.30;;;27.30;99.90;;;;;;5036780;28;20217;-84
2022/08/01 12:05:29;;;;;;;0.77;0.68;;;26.80;99.90;;;;;;5053780;28;20214;-84
2022/08/01 12:07:56;;;;;;;1.50;0.50;;;27.10;99.90;;;;;;5036358;28;20183;-84
2022/08/01 12:10:28;;;;;;;0.60;0.60;;;27.40;99.90;;;;;;5035990;28;20294;-85
2022/08/01 12:12:58;;;;;;;0.40;0.40;;;27.80;99.90;;;;;;5054010;28;20155;-84
2022/08/01 12:15:24;;;;;;;2.70;0.77;;;27.50;99.90;;;;;;5035871;28;20211;-84
2022/08/01 12:17:56;;;;;;;1.63;0.47;;;27.70;99.90;;;;;;5036089;28;20178;-87
2022/08/01 12:20:22;;;;;;;2.40;0.50;;;27.70;99.90;;;;;;5054101;28;20186;-84
2022/08/01 12:22:53;;;;;;;5.00;0.60;;;27.90;99.90;;;;;;5035163;28;20658;-84
2022/08/01 12:25:19;;;;;;;10.88;0.80;;;27.90;99.90;;;;;;5034813;28;20174;-84
2022/08/01 12:27:46;;;;;;;1.77;0.50;;;27.90;99.90;;;;;;5034967;28;20163;-84
2022/08/01 12:30:18;;;;;;;0.40;0.40;;;27.90;99.90;;;;;;5035643;28;20693;-84
2022/08/01 12:32:46;;;;;;;5.70;1.00;;;27.80;99.90;;;;;;5035925;28;20167;-84
2022/08/01 12:35:22;;;;;;;1.50;0.60;;;27.80;99.90;;;;;;5053074;28;20651;-84
2022/08/01 12:37:50;;;;;;;0.95;0.50;;;28.10;99.90;;;;;;5052899;28;20734;-84
2022/08/01 12:40:28;;;;;;;0.98;0.80;;;27.60;99.90;;;;;;5052880;28;20191;-85
2022/08/01 12:43:05;;;;;;;3.47;2.80;;;27.90;99.90;;;;;;5034815;28;20623;-86
2022/08/01 12:45:33;;;;;;;6.22;2.80;;;27.90;99.90;;;;;;5054091;28;20171;-86
2022/08/01 12:47:59;;;;;;;4.70;2.03;;;28.30;99.90;;;;;;5034334;28;20167;-85
2022/08/01 12:50:28;;;;;;;1.05;0.95;;;28.60;99.90;;;;;;5052185;28;20642;-85
2022/08/01 12:52:54;;;;;;;32.40;2.90;;;28.20;99.90;;;;;;5053570;28;20209;-86